Terminal Aerodrome Forecast
Issued by NWS Dodge City, KS

Home | Current Version | Previous Version | Graphics & Text | Print | Product List | Glossary Off
Versions: 1 2 3 4 5 6 7 8 9 10 11 12 13 14 15 16 17 18 19 20 21 22 23 24 25 26 27

220
FTUS43 KDDC 201720
TAFDDC
TAF
KDDC 201720Z 2018/2118 20016G22KT P6SM SKC
     FM201900 19019G29KT P6SM SCT080
     FM210000 18015G25KT P6SM SKC
     FM210600 18012KT P6SM SKC WS020/20040KT
     FM211200 19010KT P6SM SKC
     FM211500 20015G25KT P6SM SKC=

USA.gov is the U.S. government's official web portal to all federal, state and local government web resources and services.